createdAt,value
2022-11-22T00:00:21.714Z,1.76
2022-11-22T00:02:48.596Z,1.91
2022-11-22T00:05:15.206Z,2.02
2022-11-22T00:07:41.900Z,1.97
2022-11-22T00:10:11.920Z,2.09
2022-11-22T00:12:39.017Z,1.84
2022-11-22T00:15:06.641Z,1.90
2022-11-22T00:17:33.685Z,2.03
2022-11-22T00:20:00.399Z,2.08
2022-11-22T00:22:27.113Z,2.21
2022-11-22T00:24:53.666Z,1.97
2022-11-22T00:27:20.892Z,2.22
2022-11-22T00:29:47.471Z,1.99
2022-11-22T00:32:14.292Z,2.04
2022-11-22T00:34:40.934Z,1.94
2022-11-22T00:37:08.396Z,1.90
2022-11-22T00:39:35.003Z,1.87
2022-11-22T00:42:01.578Z,1.88
2022-11-22T00:44:28.173Z,1.89
2022-11-22T00:46:54.719Z,2.01
2022-11-22T00:49:21.305Z,2.00
2022-11-22T00:51:47.907Z,1.80
2022-11-22T00:54:14.538Z,1.55
2022-11-22T00:56:41.148Z,1.50
2022-11-22T00:59:07.695Z,1.40
2022-11-22T01:01:34.344Z,1.19
2022-11-22T01:04:00.924Z,1.03
2022-11-22T01:06:27.523Z,1.17
2022-11-22T01:08:54.145Z,1.05
2022-11-22T01:11:20.734Z,1.09
2022-11-22T01:13:47.523Z,1.09
2022-11-22T01:16:15.277Z,1.05
2022-11-22T01:18:42.708Z,1.06
2022-11-22T01:21:09.329Z,1.11
2022-11-22T01:23:35.937Z,0.91
2022-11-22T01:26:03.447Z,1.07
2022-11-22T01:28:30.029Z,1.06
2022-11-22T01:30:56.625Z,1.00
2022-11-22T01:33:23.205Z,1.04
2022-11-22T01:35:49.760Z,1.07
2022-11-22T01:38:16.653Z,1.32
2022-11-22T01:40:43.229Z,1.12
2022-11-22T01:43:22.223Z,1.10
2022-11-22T01:45:56.862Z,0.98
2022-11-22T01:48:36.491Z,1.26
2022-11-22T01:51:28.302Z,1.33
2022-11-22T01:54:00.695Z,1.64
2022-11-22T01:56:30.391Z,1.16
2022-11-22T01:59:02.545Z,1.44
2022-11-22T02:01:30.043Z,1.17
2022-11-22T02:04:00.661Z,1.47
2022-11-22T02:06:39.404Z,1.31
2022-11-22T02:09:13.189Z,1.43
2022-11-22T02:11:47.137Z,1.43
2022-11-22T02:14:15.439Z,1.51
2022-11-22T02:16:43.876Z,1.40
2022-11-22T02:19:23.240Z,1.40
2022-11-22T02:21:58.254Z,1.41
2022-11-22T02:24:35.892Z,1.42
2022-11-22T02:27:02.958Z,1.35
2022-11-22T02:29:31.731Z,1.34
2022-11-22T02:31:58.543Z,1.34
2022-11-22T02:34:25.086Z,1.44
2022-11-22T02:36:54.391Z,1.36
2022-11-22T02:39:29.242Z,1.38
2022-11-22T02:41:57.075Z,1.32
2022-11-22T02:44:24.677Z,1.45
2022-11-22T02:46:55.526Z,1.42
2022-11-22T02:49:24.735Z,1.37
2022-11-22T02:51:52.866Z,1.15
2022-11-22T02:54:19.808Z,1.28
2022-11-22T02:56:46.761Z,1.38
2022-11-22T02:59:13.701Z,1.34
2022-11-22T03:01:40.471Z,1.26
2022-11-22T03:04:07.081Z,1.43
2022-11-22T03:06:33.668Z,1.18
2022-11-22T03:09:00.247Z,1.26
2022-11-22T03:11:26.772Z,1.41
2022-11-22T03:13:53.320Z,1.37
2022-11-22T03:16:19.969Z,1.13
2022-11-22T03:18:46.536Z,1.17
2022-11-22T03:21:13.140Z,1.29
2022-11-22T03:23:39.682Z,1.13
2022-11-22T03:26:11.555Z,1.04
2022-11-22T03:28:38.406Z,1.26
2022-11-22T03:31:06.631Z,1.16
2022-11-22T03:33:34.363Z,1.04
2022-11-22T03:36:01.626Z,0.93
2022-11-22T03:38:28.292Z,0.98
2022-11-22T03:40:54.859Z,1.12
2022-11-22T03:43:22.650Z,1.09
2022-11-22T03:45:49.523Z,1.09
2022-11-22T03:48:16.069Z,1.07
2022-11-22T03:50:42.606Z,0.98
2022-11-22T03:53:09.852Z,1.00
2022-11-22T03:55:36.425Z,0.93
2022-11-22T03:58:03.420Z,1.05
2022-11-22T04:00:30.096Z,0.96
2022-11-22T04:02:56.698Z,1.04
2022-11-22T04:05:23.260Z,0.87
2022-11-22T04:07:49.926Z,1.02
2022-11-22T04:10:20.871Z,1.19
2022-11-22T04:12:48.881Z,0.94
2022-11-22T04:15:15.791Z,1.07
2022-11-22T04:17:44.970Z,0.96
2022-11-22T04:20:20.081Z,1.23
2022-11-22T04:22:55.581Z,1.09
2022-11-22T04:25:22.197Z,0.93
2022-11-22T04:27:48.761Z,0.91
2022-11-22T04:30:20.296Z,0.66
2022-11-22T04:32:47.367Z,0.73
2022-11-22T04:35:16.691Z,0.72
2022-11-22T04:37:43.389Z,0.76
2022-11-22T04:40:11.227Z,0.82
2022-11-22T04:42:37.824Z,0.83
2022-11-22T04:45:04.800Z,0.82
2022-11-22T04:47:31.395Z,0.78
2022-11-22T04:49:58.148Z,0.88
2022-11-22T04:52:24.722Z,0.93
2022-11-22T04:54:51.270Z,0.97
2022-11-22T04:57:17.908Z,1.05
2022-11-22T04:59:44.462Z,1.03
2022-11-22T05:02:11.036Z,1.09
2022-11-22T05:04:37.578Z,1.04
2022-11-22T05:07:04.209Z,0.94
2022-11-22T05:09:31.164Z,1.09
2022-11-22T05:11:57.889Z,1.21
2022-11-22T05:14:24.458Z,1.09
2022-11-22T05:16:50.989Z,1.13
2022-11-22T05:19:17.555Z,1.08
2022-11-22T05:21:44.143Z,1.44
2022-11-22T05:24:10.721Z,1.08
2022-11-22T05:26:37.317Z,1.26
2022-11-22T05:29:07.523Z,1.35
2022-11-22T05:31:36.444Z,1.28
2022-11-22T05:34:03.591Z,1.33
2022-11-22T05:36:32.851Z,1.26
2022-11-22T05:38:59.840Z,1.16
2022-11-22T05:41:26.454Z,1.15
2022-11-22T05:43:54.903Z,1.29
2022-11-22T05:46:27.161Z,1.22
2022-11-22T05:48:56.077Z,1.08
2022-11-22T05:51:30.542Z,1.24
2022-11-22T05:54:00.418Z,1.38
2022-11-22T05:56:26.970Z,1.40
2022-11-22T05:58:53.528Z,1.34
2022-11-22T06:01:23.226Z,1.49
2022-11-22T06:03:50.695Z,1.33
2022-11-22T06:06:18.076Z,1.44
2022-11-22T06:08:46.127Z,1.55
2022-11-22T06:11:27.251Z,1.25
2022-11-22T06:13:57.377Z,1.17
2022-11-22T06:16:25.285Z,0.89
2022-11-22T06:18:53.470Z,1.11
2022-11-22T06:21:21.633Z,1.11
2022-11-22T06:23:48.179Z,0.86
2022-11-22T06:26:17.671Z,1.01
2022-11-22T06:28:45.536Z,0.97
2022-11-22T06:31:23.944Z,0.81
2022-11-22T06:33:53.114Z,0.89
2022-11-22T06:36:22.536Z,0.79
2022-11-22T06:38:49.975Z,0.86
2022-11-22T06:41:19.897Z,0.83
2022-11-22T06:43:49.647Z,0.88
2022-11-22T06:46:18.622Z,0.88
2022-11-22T06:48:46.283Z,0.98
2022-11-22T06:51:15.427Z,1.02
2022-11-22T06:53:49.787Z,1.11
2022-11-22T06:56:23.565Z,0.91
2022-11-22T06:58:52.508Z,0.96
2022-11-22T07:01:22.046Z,1.03
2022-11-22T07:03:49.673Z,1.21
2022-11-22T07:06:19.118Z,1.08
2022-11-22T07:08:47.590Z,1.03
2022-11-22T07:11:17.757Z,1.07
2022-11-22T07:13:45.677Z,1.12
2022-11-22T07:16:15.570Z,1.21
2022-11-22T07:18:43.121Z,1.05
2022-11-22T07:21:13.639Z,1.25
2022-11-22T07:23:42.389Z,1.20
2022-11-22T07:26:10.331Z,1.12
2022-11-22T07:28:37.663Z,1.28
2022-11-22T07:31:06.557Z,1.43
2022-11-22T07:33:34.073Z,1.37
2022-11-22T07:36:18.600Z,1.19
2022-11-22T07:38:45.539Z,1.25
2022-11-22T07:41:13.095Z,1.38
2022-11-22T07:43:39.823Z,1.47
2022-11-22T07:46:11.315Z,1.42
2022-11-22T07:48:37.916Z,1.32
2022-11-22T07:51:08.929Z,1.31
2022-11-22T07:53:35.937Z,1.55
2022-11-22T07:56:04.958Z,1.43
2022-11-22T07:58:32.386Z,1.53
2022-11-22T08:01:05.141Z,1.28
2022-11-22T08:03:31.790Z,1.43
2022-11-22T08:06:02.834Z,1.47
2022-11-22T08:08:29.600Z,1.33
2022-11-22T08:10:56.181Z,1.39
2022-11-22T08:13:23.678Z,1.47
2022-11-22T08:15:52.360Z,1.48
2022-11-22T08:18:22.012Z,1.46
2022-11-22T08:20:48.636Z,1.55
2022-11-22T08:23:15.186Z,1.52
2022-11-22T08:25:41.754Z,1.53
2022-11-22T08:28:08.373Z,1.58
2022-11-22T08:30:34.973Z,1.58
2022-11-22T08:33:01.556Z,1.41
2022-11-22T08:35:28.131Z,1.72
2022-11-22T08:37:56.908Z,1.65
2022-11-22T08:40:23.593Z,1.68
2022-11-22T08:42:54.090Z,1.64
2022-11-22T08:45:20.682Z,1.45
2022-11-22T08:47:47.278Z,1.68
2022-11-22T08:50:13.866Z,1.54
2022-11-22T08:52:40.449Z,1.74
2022-11-22T08:55:07.672Z,1.48
2022-11-22T08:57:34.278Z,1.50
2022-11-22T09:00:00.867Z,1.59
2022-11-22T09:02:27.408Z,1.65
2022-11-22T09:04:53.943Z,1.56
2022-11-22T09:10:07.435Z,1.59
2022-11-22T09:12:34.403Z,1.65
2022-11-22T09:15:00.996Z,1.77
2022-11-22T09:17:27.584Z,1.50
2022-11-22T09:19:54.196Z,1.30
2022-11-22T09:22:24.029Z,1.31
2022-11-22T09:24:53.514Z,1.37
2022-11-22T09:27:20.142Z,1.29
2022-11-22T09:29:46.734Z,1.43
2022-11-22T09:32:13.277Z,1.33
2022-11-22T09:34:39.929Z,1.38
2022-11-22T09:37:06.545Z,1.28
2022-11-22T09:39:33.120Z,1.11
2022-11-22T09:42:08.659Z,1.21
2022-11-22T09:44:50.042Z,1.01
2022-11-22T09:47:35.160Z,1.02
2022-11-22T09:50:31.023Z,0.92
2022-11-22T09:53:16.166Z,1.05
2022-11-22T09:55:48.540Z,1.21
2022-11-22T09:58:20.949Z,1.34
2022-11-22T10:00:52.023Z,1.28
2022-11-22T10:03:19.076Z,1.28
2022-11-22T10:05:55.669Z,1.43
2022-11-22T10:08:37.787Z,1.28
2022-11-22T10:11:17.622Z,1.38
2022-11-22T10:13:55.930Z,1.37
2022-11-22T10:16:41.175Z,1.46
2022-11-22T10:19:18.206Z,1.44
2022-11-22T10:21:45.732Z,1.39
2022-11-22T10:24:17.951Z,1.19
2022-11-22T10:26:45.113Z,1.33
2022-11-22T10:29:37.169Z,1.21
2022-11-22T10:32:37.153Z,1.45
2022-11-22T10:35:31.205Z,1.21
2022-11-22T10:37:57.734Z,1.21
2022-11-22T10:40:50.173Z,1.12
2022-11-22T10:43:43.021Z,1.05
2022-11-22T10:46:17.654Z,1.03
2022-11-22T10:49:18.919Z,0.90
2022-11-22T10:52:04.740Z,1.10
2022-11-22T10:54:43.898Z,0.79
2022-11-22T10:57:31.325Z,0.83
2022-11-22T11:00:25.888Z,0.76
2022-11-22T11:03:22.984Z,0.77
2022-11-22T11:06:37.961Z,0.77
2022-11-22T11:12:00.606Z,0.67
2022-11-22T11:14:38.889Z,0.86
2022-11-22T11:17:06.594Z,0.87
2022-11-22T11:19:44.833Z,0.93
2022-11-22T11:22:44.313Z,0.88
2022-11-22T11:25:28.938Z,1.02
2022-11-22T11:28:19.196Z,0.87
2022-11-22T11:30:51.765Z,0.87
2022-11-22T11:33:32.861Z,1.10
2022-11-22T11:36:06.593Z,0.94
2022-11-22T11:38:41.882Z,0.96
2022-11-22T11:41:38.871Z,0.88
2022-11-22T11:44:26.166Z,0.85
2022-11-22T11:46:52.714Z,0.82
2022-11-22T11:49:25.577Z,0.78
2022-11-22T11:51:56.954Z,0.89
2022-11-22T11:54:40.559Z,0.97
2022-11-22T11:57:30.358Z,0.76
2022-11-22T12:00:01.055Z,0.94
2022-11-22T12:02:40.920Z,0.86
2022-11-22T12:05:27.845Z,0.88
2022-11-22T12:07:55.201Z,0.77
2022-11-22T12:10:36.072Z,0.68
2022-11-22T12:13:08.587Z,0.74
2022-11-22T12:15:46.884Z,0.76
2022-11-22T12:18:30.722Z,0.80
2022-11-22T12:21:18.752Z,0.58
2022-11-22T12:24:08.154Z,0.69
2022-11-22T12:26:43.785Z,0.69
2022-11-22T12:29:15.522Z,0.80
2022-11-22T12:32:04.690Z,0.65
2022-11-22T12:34:48.254Z,0.77
2022-11-22T12:37:27.407Z,0.95
2022-11-22T12:40:01.089Z,0.88
2022-11-22T12:42:43.965Z,0.73
2022-11-22T12:45:36.332Z,0.80
2022-11-22T12:48:26.508Z,1.18
2022-11-22T12:50:57.966Z,0.81
2022-11-22T12:53:39.435Z,0.89
2022-11-22T12:56:33.536Z,0.91
2022-11-22T12:59:21.805Z,0.75
2022-11-22T13:02:15.260Z,0.63
2022-11-22T13:05:13.317Z,0.67
2022-11-22T13:08:11.930Z,0.76
2022-11-22T13:10:53.287Z,0.78
2022-11-22T13:13:31.653Z,0.63
2022-11-22T13:16:02.734Z,0.75
2022-11-22T13:18:56.382Z,0.70
2022-11-22T13:21:55.270Z,0.80
2022-11-22T13:24:30.965Z,0.68
2022-11-22T13:27:03.561Z,0.81
2022-11-22T13:29:34.347Z,0.76
2022-11-22T13:32:00.890Z,0.71
2022-11-22T13:34:28.829Z,0.75
2022-11-22T13:37:02.665Z,0.70
2022-11-22T13:39:30.121Z,0.74
2022-11-22T13:41:59.694Z,0.80
2022-11-22T13:44:35.425Z,0.75
2022-11-22T13:47:04.634Z,0.79
2022-11-22T13:49:42.287Z,0.86
2022-11-22T13:52:17.393Z,0.97
2022-11-22T13:54:46.955Z,1.00
2022-11-22T13:57:28.573Z,1.10
2022-11-22T14:00:13.503Z,1.48
2022-11-22T14:02:49.321Z,1.41
2022-11-22T14:05:41.667Z,1.25
2022-11-22T14:08:36.184Z,1.35
2022-11-22T14:11:31.017Z,1.17
2022-11-22T14:14:11.676Z,1.27
2022-11-22T14:16:59.864Z,1.34
2022-11-22T14:19:53.007Z,1.08
2022-11-22T14:22:25.685Z,1.10
2022-11-22T14:25:20.130Z,1.00
2022-11-22T14:27:52.827Z,0.90
2022-11-22T14:30:53.510Z,1.05
2022-11-22T14:33:23.493Z,0.98
2022-11-22T14:36:15.192Z,0.88
2022-11-22T14:38:43.337Z,1.05
2022-11-22T14:41:28.157Z,1.06
2022-11-22T14:44:01.502Z,1.09
2022-11-22T14:46:59.325Z,1.13
2022-11-22T14:49:38.633Z,1.04
2022-11-22T14:52:21.847Z,1.25
2022-11-22T14:55:02.621Z,1.39
2022-11-22T14:57:34.743Z,1.21
2022-11-22T15:00:07.609Z,1.32
2022-11-22T15:02:59.124Z,1.24
2022-11-22T15:09:22.735Z,1.65
2022-11-22T15:11:42.921Z,1.49
2022-11-22T15:14:28.257Z,1.46
2022-11-22T15:57:38.093Z,1.30
2022-11-22T16:00:23.741Z,1.53
2022-11-22T16:02:55.974Z,1.32
2022-11-22T16:06:08.154Z,1.10
2022-11-22T16:08:22.085Z,1.19
2022-11-22T16:10:50.928Z,1.18
2022-11-22T16:13:20.409Z,0.91
2022-11-22T16:16:13.172Z,0.96
2022-11-22T16:18:44.584Z,1.01
2022-11-22T16:21:11.083Z,0.90
2022-11-22T16:23:42.717Z,0.98
2022-11-22T16:26:18.525Z,0.86
2022-11-22T16:28:47.173Z,1.08
2022-11-22T16:31:19.427Z,0.96
2022-11-22T16:33:45.954Z,0.88
2022-11-22T16:36:14.992Z,0.82
2022-11-22T16:38:42.226Z,0.73
2022-11-22T16:41:29.403Z,0.76
2022-11-22T16:44:00.825Z,0.76
2022-11-22T16:46:27.464Z,0.91
2022-11-22T16:48:55.992Z,0.69
2022-11-22T16:51:27.753Z,0.77
2022-11-22T16:53:59.001Z,0.78
2022-11-22T16:56:28.100Z,0.71
2022-11-22T16:58:56.823Z,0.70
2022-11-22T17:01:26.084Z,0.74
2022-11-22T17:03:55.848Z,0.60
2022-11-22T17:06:24.814Z,0.85
2022-11-22T17:08:53.642Z,1.09
2022-11-22T17:11:23.397Z,1.14
2022-11-22T17:13:50.031Z,1.05
2022-11-22T17:16:16.724Z,0.93
2022-11-22T17:18:44.154Z,0.84
2022-11-22T17:21:34.467Z,0.66
2022-11-22T17:24:18.757Z,0.73
2022-11-22T17:26:45.537Z,0.84
2022-11-22T17:29:34.870Z,0.96
2022-11-22T17:31:58.684Z,1.08
2022-11-22T17:34:25.226Z,1.19
2022-11-22T17:36:53.363Z,1.22
2022-11-22T17:39:19.950Z,1.09
2022-11-22T17:41:48.721Z,1.22
2022-11-22T17:44:17.395Z,1.32
2022-11-22T17:46:44.161Z,1.37
2022-11-22T17:49:15.539Z,1.24
2022-11-22T17:51:42.653Z,1.24
2022-11-22T17:54:09.348Z,1.18
2022-11-22T17:56:35.942Z,2.03
2022-11-22T17:59:02.582Z,1.34
2022-11-22T18:01:29.233Z,1.41
2022-11-22T18:03:55.792Z,1.16
2022-11-22T18:06:22.321Z,1.10
2022-11-22T18:08:49.395Z,0.96
2022-11-22T18:11:16.862Z,1.18
2022-11-22T18:13:44.313Z,1.09
2022-11-22T18:16:13.231Z,0.91
2022-11-22T18:18:56.216Z,0.87
2022-11-22T18:21:24.883Z,1.03
2022-11-22T18:23:51.425Z,1.10
2022-11-22T18:31:52.910Z,0.84
2022-11-22T18:34:20.211Z,0.77
2022-11-22T18:36:54.632Z,0.90
2022-11-22T18:39:22.831Z,0.81
2022-11-22T18:41:49.580Z,0.78
2022-11-22T18:44:16.717Z,0.84
2022-11-22T18:46:43.351Z,0.93
2022-11-22T18:49:10.036Z,0.88
2022-11-22T18:51:36.891Z,0.85
2022-11-22T18:54:03.658Z,0.99
2022-11-22T18:56:30.254Z,1.12
2022-11-22T18:58:56.795Z,1.07
2022-11-22T19:01:23.795Z,0.95
2022-11-22T19:03:50.423Z,0.95
2022-11-22T19:06:19.113Z,1.05
2022-11-22T19:08:46.584Z,1.02
2022-11-22T19:11:13.642Z,1.01
2022-11-22T19:13:42.639Z,1.22
2022-11-22T19:16:22.581Z,1.23
2022-11-22T19:18:49.930Z,1.35
2022-11-22T19:21:21.876Z,1.12
2022-11-22T19:23:49.473Z,1.23
2022-11-22T19:26:21.706Z,1.29
2022-11-22T19:28:50.051Z,1.38
2022-11-22T19:31:19.490Z,1.53
2022-11-22T19:33:46.623Z,1.53
2022-11-22T19:36:26.400Z,1.40
2022-11-22T19:38:54.433Z,1.30
2022-11-22T19:41:23.358Z,1.22
2022-11-22T19:43:51.711Z,1.22
2022-11-22T19:46:18.761Z,1.19
2022-11-22T19:48:47.208Z,1.10
2022-11-22T19:51:15.460Z,1.00
2022-11-22T19:53:42.237Z,1.18
2022-11-22T19:56:17.467Z,1.02
2022-11-22T19:58:50.111Z,1.14
2022-11-22T20:01:17.751Z,0.91
2022-11-22T20:03:44.718Z,1.11
2022-11-22T20:06:14.011Z,1.16
2022-11-22T20:08:40.982Z,1.08
2022-11-22T20:11:11.865Z,1.09
2022-11-22T20:13:40.965Z,1.05
2022-11-22T20:16:09.585Z,1.32
2022-11-22T20:18:36.640Z,1.27
2022-11-22T20:21:06.240Z,1.21
2022-11-22T20:23:33.522Z,1.17
2022-11-22T20:26:04.965Z,1.04
2022-11-22T20:28:31.558Z,1.05
2022-11-22T20:31:13.408Z,0.99
2022-11-22T20:33:42.841Z,0.98
2022-11-22T20:36:16.001Z,0.98
2022-11-22T20:38:43.861Z,0.92
2022-11-22T20:41:15.318Z,0.93
2022-11-22T20:43:45.520Z,1.03
2022-11-22T20:59:19.286Z,1.26
2022-11-22T21:02:23.833Z,1.31
2022-11-22T21:04:50.584Z,1.33
2022-11-22T21:07:30.119Z,1.17
2022-11-22T21:10:10.734Z,1.16
2022-11-22T21:12:37.450Z,1.18
2022-11-22T21:15:10.921Z,1.08
2022-11-22T21:18:28.108Z,1.16
2022-11-22T21:21:06.740Z,1.20
2022-11-22T21:24:11.130Z,1.08
2022-11-22T21:26:53.662Z,1.69
2022-11-22T21:29:22.822Z,1.42
2022-11-22T21:31:55.250Z,1.24
2022-11-22T21:34:21.864Z,1.34
2022-11-22T21:36:48.652Z,1.29
2022-11-22T21:38:36.346Z,0.75
2022-11-22T21:38:57.952Z,1.02
2022-11-22T21:39:19.577Z,1.01
2022-11-22T21:39:41.213Z,1.21
2022-11-22T21:40:02.950Z,1.24
2022-11-22T21:40:24.625Z,1.09
2022-11-22T21:41:17.273Z,1.15
2022-11-22T21:41:41.119Z,1.38
2022-11-22T21:42:03.441Z,1.36
2022-11-22T21:42:25.028Z,1.29
2022-11-22T21:42:46.688Z,1.05
2022-11-22T21:43:08.286Z,1.25
2022-11-22T21:43:30.416Z,1.51
2022-11-22T21:43:54.591Z,1.38
2022-11-22T21:44:16.207Z,1.21
2022-11-22T21:44:37.900Z,1.40
2022-11-22T21:45:10.869Z,1.13
2022-11-22T21:45:40.004Z,1.19
2022-11-22T21:46:13.511Z,1.28
2022-11-22T21:46:47.238Z,1.16
2022-11-22T21:47:13.446Z,1.06
2022-11-22T21:47:35.132Z,1.25
2022-11-22T21:47:56.890Z,1.16
2022-11-22T21:48:36.448Z,1.07
2022-11-22T21:49:45.312Z,1.31
2022-11-22T21:50:48.291Z,1.63
2022-11-22T21:51:11.118Z,1.46
2022-11-22T21:51:32.987Z,1.37
2022-11-22T21:51:54.783Z,1.29
2022-11-22T21:52:16.662Z,1.52
2022-11-22T21:52:38.257Z,1.35
2022-11-22T21:52:59.854Z,1.22
2022-11-22T21:53:23.702Z,1.33
2022-11-22T21:53:45.415Z,1.26
2022-11-22T21:54:07.088Z,1.80
2022-11-22T21:54:28.894Z,1.75
2022-11-22T21:54:50.579Z,1.29
2022-11-22T21:55:12.216Z,1.10
2022-11-22T21:55:34.209Z,0.87
2022-11-22T21:55:58.262Z,1.05
2022-11-22T21:56:19.886Z,1.15
2022-11-22T21:56:41.481Z,1.24
2022-11-22T21:57:03.223Z,1.07
2022-11-22T21:57:24.830Z,1.21
2022-11-22T21:57:46.429Z,1.82
2022-11-22T21:58:08.042Z,1.54
2022-11-22T21:58:29.946Z,1.40
2022-11-22T21:58:52.083Z,1.14
2022-11-22T22:01:56.918Z,1.27
2022-11-22T22:04:32.715Z,1.35
2022-11-22T22:07:04.578Z,1.38
2022-11-22T22:11:23.228Z,1.35
2022-11-22T22:13:57.322Z,1.09
2022-11-22T22:16:31.801Z,1.12
2022-11-22T22:19:19.822Z,1.28
2022-11-22T22:22:21.384Z,1.33
2022-11-22T22:24:52.996Z,1.26
2022-11-22T22:27:24.544Z,1.07
2022-11-22T22:29:56.077Z,1.16
2022-11-22T22:32:51.734Z,1.31
2022-11-22T22:39:08.594Z,1.16
2022-11-22T22:42:18.279Z,1.05
2022-11-22T22:44:52.257Z,1.07
2022-11-22T22:47:23.778Z,1.35
2022-11-22T22:50:07.685Z,1.50
2022-11-22T22:52:42.426Z,1.36
2022-11-22T23:04:07.788Z,0.99
2022-11-22T23:06:41.233Z,1.17
2022-11-22T23:09:13.862Z,1.18
2022-11-22T23:11:46.480Z,0.97
2022-11-22T23:14:24.499Z,1.12
2022-11-22T23:16:58.322Z,1.00
2022-11-22T23:19:31.209Z,1.08
2022-11-22T23:22:04.741Z,1.18
2022-11-22T23:24:37.251Z,0.97
2022-11-22T23:27:09.758Z,1.09
2022-11-22T23:29:42.247Z,1.07
2022-11-22T23:32:14.780Z,1.10
2022-11-22T23:34:47.297Z,1.15
2022-11-22T23:37:19.826Z,1.03
2022-11-22T23:39:52.336Z,1.10
2022-11-22T23:42:24.939Z,1.12
2022-11-22T23:44:57.474Z,0.94
2022-11-22T23:47:30.017Z,1.17
2022-11-22T23:50:02.922Z,0.96
2022-11-22T23:52:35.528Z,1.14
2022-11-22T23:55:08.100Z,1.06
2022-11-22T23:57:40.593Z,1.02
